Home > Products > Valid Products > TAF

000
FTUS44 KLZK 290535
TAFHOT
TAF
KHOT 290535Z 2906/3006 09005KT P6SM SCT050 BKN080
     FM291200 20004KT P6SM VCSH BKN050
     FM291800 19005KT P6SM SCT040 BKN100=



000
FTUS44 KLZK 290535
TAFPBF
TAF
KPBF 290535Z 2906/3006 VRB03KT P6SM BKN250
     FM291100 VRB03KT 4SM BR SCT250
     FM291800 19004KT P6SM BKN100=



000
FTUS44 KLZK 290535
TAFHRO
TAF
KHRO 290535Z 2906/3006 16006KT P6SM BKN090
     FM290800 20007KT P6SM VCTS BKN050CB
     FM291500 20005KT P6SM SCT050 BKN100
     FM300000 17005KT P6SM BKN050 PROB30 3000/3006 -TSRA BKN040CB
      AMD NOT SKED=



000
FTUS44 KLZK 290535
TAFLIT
TAF
KLIT 290535Z 2906/3006 VRB05KT P6SM SCT040 BKN150
     FM291200 20007KT P6SM BKN100=



000
FTUS44 KLZK 282320
TAFHRO
TAF
KHRO 282320Z 2900/2924 16006KT P6SM SCT050 BKN250 PROB30 2909/2915
      SHRA
      AMD NOT SKED=



000
FTUS44 KLZK 282320
TAFLIT
TAF
KLIT 282320Z 2900/2924 VRB05KT P6SM SCT040 BKN150
     FM291200 20007KT P6SM BKN100=



000
FTUS44 KLZK 282320
TAFPBF
TAF
KPBF 282320Z 2900/2924 VRB03KT P6SM BKN250
     FM291100 VRB03KT 4SM BR SCT250
     FM291400 19004KT P6SM BKN100=



000
FTUS44 KLZK 282320
TAFHOT
TAF
KHOT 282320Z 2900/2924 VRB06KT P6SM SCT050 BKN080
     FM291200 20004KT P6SM BKN080=



000
FTUS44 KLZK 282320
TAFPBF
TAF
KPBF 282320Z 2900/2924 VRB03KT P6SM BKN250
     FM291100 VRB03KT 4SM BR SCT250
     FM291400 19004KT P6SM BKN100=



000
FTUS44 KLZK 282320
TAFHOT
TAF
KHOT 282320Z 2900/2924 VRB06KT P6SM SCT050 BKN080
     FM291200 20004KT P6SM BKN080=



000
FTUS44 KLZK 282320
TAFHRO
TAF
KHRO 282320Z 2900/2924 16006KT P6SM SCT050 BKN250 PROB30 2909/2915
      SHRA
      AMD NOT SKED=



000
FTUS44 KLZK 282320
TAFLIT
TAF
KLIT 282320Z 2900/2924 VRB05KT P6SM SCT040 BKN150
     FM291200 20007KT P6SM BKN100=



000
FTUS44 KLZK 281720
TAFLIT
TAF
KLIT 281720Z 2818/2918 14005KT P6SM SCT040 BKN250
     FM290300 VRB03KT P6SM BKN100
     FM291200 20006KT P6SM BKN100=



000
FTUS44 KLZK 281720
TAFPBF
TAF
KPBF 281720Z 2818/2918 15005KT P6SM SCT050 BKN250
     FM290100 14003KT P6SM BKN250
     FM291100 VRB03KT 4SM BR SCT250
     FM291400 19004KT P6SM BKN100=



000
FTUS44 KLZK 281720
TAFHOT
TAF
KHOT 281720Z 2818/2918 21005KT P6SM SCT050 BKN250
     FM290500 VRB03KT P6SM BKN100
     FM291200 20003KT P6SM BKN080=



000
FTUS44 KLZK 281720
TAFHRO
TAF
KHRO 281720Z 2818/2918 16008KT P6SM FEW050 BKN250
     FM282100 17009KT P6SM VCSH SCT050 BKN250
      TEMPO 2822/2901 BKN050
     FM290100 19007KT P6SM VCSH BKN040 OVC250
      TEMPO 2903/2906 5SM -SHRA
     FM290600 17004KT 6SM -SHRA BKN040 OVC100
     FM291400 18004KT 3SM -SHRA BKN040 OVC100
      AMD NOT SKED=



000
FTUS44 KLZK 281720
TAFHRO
TAF
KHRO 281720Z 2818/2918 16008KT P6SM FEW050 BKN250
     FM282100 17009KT P6SM VCSH SCT050 BKN250
      TEMPO 2822/2901 BKN050
     FM290100 19007KT P6SM VCSH BKN040 OVC250
      TEMPO 2903/2906 5SM -SHRA
     FM290600 17004KT 6SM -SHRA BKN040 OVC100
     FM291400 18004KT 3SM -SHRA BKN040 OVC100
      AMD NOT SKED=



000
FTUS44 KLZK 281720
TAFHOT
TAF
KHOT 281720Z 2818/2918 21005KT P6SM SCT050 BKN250
     FM290500 VRB03KT P6SM BKN100
     FM291200 20003KT P6SM BKN080=



000
FTUS44 KLZK 281720
TAFLIT
TAF
KLIT 281720Z 2818/2918 14005KT P6SM SCT040 BKN250
     FM290300 VRB03KT P6SM BKN100
     FM291200 20006KT P6SM BKN100=



000
FTUS44 KLZK 281720
TAFPBF
TAF
KPBF 281720Z 2818/2918 15005KT P6SM SCT050 BKN250
     FM290100 14003KT P6SM BKN250
     FM291100 VRB03KT 4SM BR SCT250
     FM291400 19004KT P6SM BKN100=



000
FTUS44 KLZK 281404 AAA
TAFPBF
TAF AMD
KPBF 281404Z 2814/2912 VRB03KT P6SM SCT250
     FM281500 15005KT P6SM SCT050 BKN250=



000
FTUS44 KLZK 281404 AAA
TAFPBF
TAF AMD
KPBF 281404Z 2814/2912 VRB03KT P6SM SCT250
     FM281500 15005KT P6SM SCT050 BKN250=



000
FTUS44 KLZK 281129
TAFLIT
TAF
KLIT 281129Z 2812/2912 06003KT P6SM BKN250
     FM281500 14005KT P6SM SCT050 BKN250=



000
FTUS44 KLZK 281129
TAFPBF
TAF
KPBF 281129Z 2812/2912 VRB03KT P6SM BKN250
      TEMPO 2812/2815 1SM BR
     FM281500 15005KT P6SM SCT050 BKN250=



000
FTUS44 KLZK 281129
TAFHOT
TAF
KHOT 281129Z 2812/2912 09003KT P6SM BKN250
     FM281500 14005KT P6SM SCT050 BKN250
     FM290500 VRB03KT P6SM BKN100=



000
FTUS44 KLZK 281129
TAFHRO
TAF
KHRO 281129Z 2812/2912 15005KT P6SM BKN050
      TEMPO 2812/2814 3SM BR SCT002
     FM281500 14009KT P6SM SCT050 BKN250
     FM290000 19007KT P6SM BKN050
      AMD NOT SKED=



000
FTUS44 KLZK 281129
TAFLIT
TAF
KLIT 281129Z 2812/2912 06003KT P6SM BKN250
     FM281500 14005KT P6SM SCT050 BKN250=



000
FTUS44 KLZK 281129
TAFPBF
TAF
KPBF 281129Z 2812/2912 VRB03KT P6SM BKN250
      TEMPO 2812/2815 1SM BR
     FM281500 15005KT P6SM SCT050 BKN250=



000
FTUS44 KLZK 281129
TAFHOT
TAF
KHOT 281129Z 2812/2912 09003KT P6SM BKN250
     FM281500 14005KT P6SM SCT050 BKN250
     FM290500 VRB03KT P6SM BKN100=



000
FTUS44 KLZK 281129
TAFHRO
TAF
KHRO 281129Z 2812/2912 15005KT P6SM BKN050
      TEMPO 2812/2814 3SM BR SCT002
     FM281500 14009KT P6SM SCT050 BKN250
     FM290000 19007KT P6SM BKN050
      AMD NOT SKED=



000
FTUS44 KLZK 281046 AAA
TAFPBF
TAF AMD
KPBF 281046Z 2811/2906 VRB03KT P6SM BKN250
      TEMPO 2811/2814 1SM BR
     FM281500 10005KT P6SM SCT050 BKN250=



000
FTUS44 KLZK 280521
TAFHOT
TAF
KHOT 280521Z 2806/2906 09003KT P6SM BKN250
     FM281500 14005KT P6SM SCT050 BKN250=



000
FTUS44 KLZK 280521
TAFPBF
TAF
KPBF 280521Z 2806/2906 VRB03KT P6SM BKN250
     FM281500 10005KT P6SM SCT050 BKN250=



000
FTUS44 KLZK 280521
TAFLIT
TAF
KLIT 280521Z 2806/2906 06003KT P6SM BKN250
     FM281500 14005KT P6SM SCT050 BKN250=



000
FTUS44 KLZK 280521
TAFHRO
TAF
KHRO 280521Z 2806/2906 15005KT P6SM OVC250
      TEMPO 2810/2814 3SM BR SCT002
     FM281500 14009KT P6SM SCT050 BKN250
     FM290000 19007KT P6SM BKN050
      AMD NOT SKED=



000
FTUS44 KLZK 280521
TAFLIT
TAF
KLIT 280521Z 2806/2906 06003KT P6SM BKN250
     FM281500 14005KT P6SM SCT050 BKN250=



000
FTUS44 KLZK 280521
TAFPBF
TAF
KPBF 280521Z 2806/2906 VRB03KT P6SM BKN250
     FM281500 10005KT P6SM SCT050 BKN250=



000
FTUS44 KLZK 280521
TAFHOT
TAF
KHOT 280521Z 2806/2906 09003KT P6SM BKN250
     FM281500 14005KT P6SM SCT050 BKN250=



000
FTUS44 KLZK 280521
TAFHRO
TAF
KHRO 280521Z 2806/2906 15005KT P6SM OVC250
      TEMPO 2810/2814 3SM BR SCT002
     FM281500 14009KT P6SM SCT050 BKN250
     FM290000 19007KT P6SM BKN050
      AMD NOT SKED=



000
FTUS44 KLZK 272337
TAFPBF
TAF
KPBF 272337Z 2800/2824 06006KT P6SM OVC250
     FM280200 03003KT P6SM BKN250
     FM281500 10007KT P6SM SCT050 BKN250=



000
FTUS44 KLZK 272337
TAFHRO
TAF
KHRO 272337Z 2800/2824 12004KT P6SM OVC250
     FM281500 14009KT P6SM SCT050 BKN250=



000
FTUS44 KLZK 272337
TAFHOT
TAF
KHOT 272337Z 2800/2824 09003KT P6SM BKN250
     FM281500 14009KT P6SM SCT050 BKN250=



000
FTUS44 KLZK 272337
TAFLIT
TAF
KLIT 272337Z 2800/2824 08006KT P6SM OVC250
     FM280200 06003KT P6SM BKN250
     FM281500 14007KT P6SM SCT050 BKN250=



000
FTUS44 KLZK 272337
TAFLIT
TAF
KLIT 272337Z 2800/2824 08006KT P6SM OVC250
     FM280200 06003KT P6SM BKN250
     FM281500 14007KT P6SM SCT050 BKN250=



000
FTUS44 KLZK 272337
TAFPBF
TAF
KPBF 272337Z 2800/2824 06006KT P6SM OVC250
     FM280200 03003KT P6SM BKN250
     FM281500 10007KT P6SM SCT050 BKN250=



000
FTUS44 KLZK 272337
TAFHRO
TAF
KHRO 272337Z 2800/2824 12004KT P6SM OVC250
     FM281500 14009KT P6SM SCT050 BKN250=



000
FTUS44 KLZK 272337
TAFHOT
TAF
KHOT 272337Z 2800/2824 09003KT P6SM BKN250
     FM281500 14009KT P6SM SCT050 BKN250=



000
FTUS44 KLZK 271727
TAFPBF
TAF
KPBF 271727Z 2718/2818 06008KT P6SM SCT050
     FM280200 VRB03KT P6SM SKC=



000
FTUS44 KLZK 271727
TAFHOT
TAF
KHOT 271727Z 2718/2818 11006KT P6SM SCT050
     FM280300 VRB03KT P6SM SKC=



000
FTUS44 KLZK 271727
TAFHRO
TAF
KHRO 271727Z 2718/2818 16008KT P6SM BKN250
     FM280000 14006KT P6SM SCT250=



000
FTUS44 KLZK 271727
TAFLIT
TAF
KLIT 271727Z 2718/2818 08007KT P6SM SCT050
     FM280200 VRB04KT P6SM SKC=



000
FTUS44 KLZK 271727
TAFPBF
TAF
KPBF 271727Z 2718/2818 06008KT P6SM SCT050
     FM280200 VRB03KT P6SM SKC=



000
FTUS44 KLZK 271727
TAFHRO
TAF
KHRO 271727Z 2718/2818 16008KT P6SM BKN250
     FM280000 14006KT P6SM SCT250=



000
FTUS44 KLZK 271727
TAFHOT
TAF
KHOT 271727Z 2718/2818 11006KT P6SM SCT050
     FM280300 VRB03KT P6SM SKC=



000
FTUS44 KLZK 271727
TAFLIT
TAF
KLIT 271727Z 2718/2818 08007KT P6SM SCT050
     FM280200 VRB04KT P6SM SKC=



000
FTUS44 KLZK 271325 AAB
TAFHRO
TAF AMD
KHRO 271325Z 2713/2812 13006KT P6SM BKN250=



000
FTUS44 KLZK 271325 AAB
TAFHRO
TAF AMD
KHRO 271325Z 2713/2812 13006KT P6SM BKN250=



000
FTUS44 KLZK 271236 AAA
TAFHRO
TAF AMD
KHRO 271236Z 2713/2812 14005KT 4SM BR BKN005
      TEMPO 2713/2714 2SM BR VV001
     FM271400 15006KT P6SM SCT015
     FM271800 13007KT P6SM SCT250=



000
FTUS44 KLZK 271236 AAA
TAFHRO
TAF AMD
KHRO 271236Z 2713/2812 14005KT 4SM BR BKN005
      TEMPO 2713/2714 2SM BR VV001
     FM271400 15006KT P6SM SCT015
     FM271800 13007KT P6SM SCT250=



000
FTUS44 KLZK 271120
TAFHRO
TAF
KHRO 271120Z 2712/2812 14003KT P6SM BKN060
     FM271800 13007KT P6SM SCT250=



000
FTUS44 KLZK 271120
TAFHOT
TAF
KHOT 271120Z 2712/2812 13003KT P6SM SKC
     FM271500 11005KT P6SM SCT050
     FM280300 VRB03KT P6SM SKC=



000
FTUS44 KLZK 271120
TAFHRO
TAF
KHRO 271120Z 2712/2812 14003KT P6SM BKN060
     FM271800 13007KT P6SM SCT250=



000
FTUS44 KLZK 271120
TAFLIT
TAF
KLIT 271120Z 2712/2812 05003KT P6SM SKC
     FM271500 08007KT P6SM SCT050
     FM280200 08004KT P6SM SKC=



000
FTUS44 KLZK 271120
TAFPBF
TAF
KPBF 271120Z 2712/2812 05003KT P6SM SKC
     FM271500 03007KT P6SM SCT050
     FM280200 VRB03KT P6SM SKC=



000
FTUS44 KLZK 271120
TAFHOT
TAF
KHOT 271120Z 2712/2812 13003KT P6SM SKC
     FM271500 11005KT P6SM SCT050
     FM280300 VRB03KT P6SM SKC=



000
FTUS44 KLZK 271120
TAFPBF
TAF
KPBF 271120Z 2712/2812 05003KT P6SM SKC
     FM271500 03007KT P6SM SCT050
     FM280200 VRB03KT P6SM SKC=



000
FTUS44 KLZK 271120
TAFLIT
TAF
KLIT 271120Z 2712/2812 05003KT P6SM SKC
     FM271500 08007KT P6SM SCT050
     FM280200 08004KT P6SM SKC=



000
FTUS44 KLZK 270526
TAFHRO
TAF
KHRO 270526Z 2706/2806 09003KT P6SM SKC
     FM271500 13007KT P6SM SCT250=



000
FTUS44 KLZK 270526
TAFPBF
TAF
KPBF 270526Z 2706/2806 07003KT P6SM SKC
     FM271500 05007KT P6SM SCT050=



000
FTUS44 KLZK 270526
TAFHOT
TAF
KHOT 270526Z 2706/2806 13003KT P6SM SKC
     FM271500 11006KT P6SM SCT050=



000
FTUS44 KLZK 270526
TAFLIT
TAF
KLIT 270526Z 2706/2806 05003KT P6SM SKC
     FM271500 08007KT P6SM SCT050=



000
FTUS44 KLZK 270526
TAFPBF
TAF
KPBF 270526Z 2706/2806 07003KT P6SM SKC
     FM271500 05007KT P6SM SCT050=



000
FTUS44 KLZK 270526
TAFHOT
TAF
KHOT 270526Z 2706/2806 13003KT P6SM SKC
     FM271500 11006KT P6SM SCT050=



000
FTUS44 KLZK 270526
TAFLIT
TAF
KLIT 270526Z 2706/2806 05003KT P6SM SKC
     FM271500 08007KT P6SM SCT050=



000
FTUS44 KLZK 270526
TAFHRO
TAF
KHRO 270526Z 2706/2806 09003KT P6SM SKC
     FM271500 13007KT P6SM SCT250=



000
FTUS44 KLZK 262330
TAFHOT
TAF
KHOT 262330Z 2700/2724 07003KT P6SM SKC
     FM271500 11006KT P6SM SCT050=



000
FTUS44 KLZK 262330
TAFHRO
TAF
KHRO 262330Z 2700/2724 09003KT P6SM SKC
     FM271500 14007KT P6SM SCT250=



000
FTUS44 KLZK 262330
TAFPBF
TAF
KPBF 262330Z 2700/2724 07003KT P6SM SKC
     FM271500 05007KT P6SM SCT050=



000
FTUS44 KLZK 262330
TAFLIT
TAF
KLIT 262330Z 2700/2724 05003KT P6SM SKC
     FM271500 08007KT P6SM SCT050=



000
FTUS44 KLZK 262330
TAFHOT
TAF
KHOT 262330Z 2700/2724 07003KT P6SM SKC
     FM271500 11006KT P6SM SCT050=



000
FTUS44 KLZK 262330
TAFLIT
TAF
KLIT 262330Z 2700/2724 05003KT P6SM SKC
     FM271500 08007KT P6SM SCT050=



000
FTUS44 KLZK 262330
TAFPBF
TAF
KPBF 262330Z 2700/2724 07003KT P6SM SKC
     FM271500 05007KT P6SM SCT050=



000
FTUS44 KLZK 262330
TAFHRO
TAF
KHRO 262330Z 2700/2724 09003KT P6SM SKC
     FM271500 14007KT P6SM SCT250=



000
FTUS44 KLZK 261959 AAA
TAFLIT
TAF AMD
KLIT 261959Z 2620/2718 03008G16KT P6SM SCT045
     FM270000 VRB05KT P6SM SKC=



000
FTUS44 KLZK 261959 AAA
TAFLIT
TAF AMD
KLIT 261959Z 2620/2718 03008G16KT P6SM SCT045
     FM270000 VRB05KT P6SM SKC=



000
FTUS44 KLZK 261725
TAFPBF
TAF
KPBF 261725Z 2618/2718 03008KT P6SM SKC
     FM270000 VRB03KT P6SM SKC=



000
FTUS44 KLZK 261725
TAFHOT
TAF
KHOT 261725Z 2618/2718 VRB05KT P6SM SKC=



000
FTUS44 KLZK 261725
TAFLIT
TAF
KLIT 261725Z 2618/2718 VRB05KT P6SM SKC=



000
FTUS44 KLZK 261725
TAFHRO
TAF
KHRO 261725Z 2618/2718 VRB04KT P6SM SKC
     FM271500 12006KT P6SM SCT250=



000
FTUS44 KLZK 261725
TAFHRO
TAF
KHRO 261725Z 2618/2718 VRB04KT P6SM SKC
     FM271500 12006KT P6SM SCT250=



000
FTUS44 KLZK 261725
TAFLIT
TAF
KLIT 261725Z 2618/2718 VRB05KT P6SM SKC=



000
FTUS44 KLZK 261725
TAFPBF
TAF
KPBF 261725Z 2618/2718 03008KT P6SM SKC
     FM270000 VRB03KT P6SM SKC=



000
FTUS44 KLZK 261725
TAFHOT
TAF
KHOT 261725Z 2618/2718 VRB05KT P6SM SKC=



000
FTUS44 KLZK 261124
TAFLIT
TAF
KLIT 261124Z 2612/2712 34003KT P6SM SKC
     FM261500 02007KT P6SM SKC
     FM270000 VRB03KT P6SM SKC=



000
FTUS44 KLZK 261124
TAFPBF
TAF
KPBF 261124Z 2612/2712 VRB03KT P6SM SKC
     FM261500 02007KT P6SM SKC
     FM270000 VRB03KT P6SM SKC=



000
FTUS44 KLZK 261124
TAFHOT
TAF
KHOT 261124Z 2612/2712 VRB03KT P6SM SKC
     FM261500 36006KT P6SM SKC
     FM270000 VRB03KT P6SM SKC=



000
FTUS44 KLZK 261124
TAFHRO
TAF
KHRO 261124Z 2612/2712 27003KT P6SM SKC
     FM261500 35007KT P6SM SKC
     FM270000 VRB03KT P6SM SKC=



000
FTUS44 KLZK 261124
TAFHRO
TAF
KHRO 261124Z 2612/2712 27003KT P6SM SKC
     FM261500 35007KT P6SM SKC
     FM270000 VRB03KT P6SM SKC=



000
FTUS44 KLZK 261124
TAFHOT
TAF
KHOT 261124Z 2612/2712 VRB03KT P6SM SKC
     FM261500 36006KT P6SM SKC
     FM270000 VRB03KT P6SM SKC=



000
FTUS44 KLZK 261124
TAFLIT
TAF
KLIT 261124Z 2612/2712 34003KT P6SM SKC
     FM261500 02007KT P6SM SKC
     FM270000 VRB03KT P6SM SKC=



000
FTUS44 KLZK 261124
TAFPBF
TAF
KPBF 261124Z 2612/2712 VRB03KT P6SM SKC
     FM261500 02007KT P6SM SKC
     FM270000 VRB03KT P6SM SKC=



    US Dept of Commerce
    National Oceanic and Atmospheric Administration
    National Weather Service
    1325 East West Highway
    Silver Spring, MD 20910
    Page Author: NWS Internet Services Team
Disclaimer
Information Quality
Credits
Glossary
Privacy Policy
Freedom of Information Act (FOIA)
About Us
Career Opportunities